sensor_id;sensor_type;location;lat;lon;timestamp;P1;durP1;ratioP1;P2;durP2;ratioP2
3149;SDS011;32503;47.748;8.960;2023-03-04T00:01:52;47.00;;;24.33;;
3149;SDS011;32503;47.748;8.960;2023-03-04T00:04:19;47.97;;;24.57;;
3149;SDS011;32503;47.748;8.960;2023-03-04T00:06:46;57.30;;;25.60;;
3149;SDS011;32503;47.748;8.960;2023-03-04T00:09:13;56.03;;;25.50;;
3149;SDS011;32503;47.748;8.960;2023-03-04T00:11:40;52.30;;;24.00;;
3149;SDS011;32503;47.748;8.960;2023-03-04T00:14:09;50.87;;;23.97;;
3149;SDS011;32503;47.748;8.960;2023-03-04T00:16:36;51.30;;;24.50;;
3149;SDS011;32503;47.748;8.960;2023-03-04T00:19:03;47.27;;;24.30;;
3149;SDS011;32503;47.748;8.960;2023-03-04T00:21:30;51.20;;;24.90;;
3149;SDS011;32503;47.748;8.960;2023-03-04T00:23:58;51.97;;;24.07;;
3149;SDS011;32503;47.748;8.960;2023-03-04T00:26:25;50.47;;;23.80;;
3149;SDS011;32503;47.748;8.960;2023-03-04T00:28:52;47.67;;;23.33;;
3149;SDS011;32503;47.748;8.960;2023-03-04T00:31:20;46.37;;;23.30;;
3149;SDS011;32503;47.748;8.960;2023-03-04T00:33:47;53.30;;;25.60;;
3149;SDS011;32503;47.748;8.960;2023-03-04T00:36:14;42.97;;;22.40;;
3149;SDS011;32503;47.748;8.960;2023-03-04T00:38:41;48.40;;;23.70;;
3149;SDS011;32503;47.748;8.960;2023-03-04T00:41:09;46.70;;;23.73;;
3149;SDS011;32503;47.748;8.960;2023-03-04T00:43:36;54.47;;;23.80;;
3149;SDS011;32503;47.748;8.960;2023-03-04T00:46:03;48.87;;;22.57;;
3149;SDS011;32503;47.748;8.960;2023-03-04T00:48:32;45.83;;;22.73;;
3149;SDS011;32503;47.748;8.960;2023-03-04T00:50:59;58.43;;;24.97;;
3149;SDS011;32503;47.748;8.960;2023-03-04T00:53:26;46.70;;;23.87;;
3149;SDS011;32503;47.748;8.960;2023-03-04T00:55:53;44.67;;;24.00;;
3149;SDS011;32503;47.748;8.960;2023-03-04T00:58:21;46.53;;;24.30;;
3149;SDS011;32503;47.748;8.960;2023-03-04T01:00:48;44.57;;;23.33;;
3149;SDS011;32503;47.748;8.960;2023-03-04T01:03:15;42.13;;;22.57;;
3149;SDS011;32503;47.748;8.960;2023-03-04T01:05:43;49.40;;;23.40;;
3149;SDS011;32503;47.748;8.960;2023-03-04T01:08:10;47.60;;;23.00;;
3149;SDS011;32503;47.748;8.960;2023-03-04T01:10:37;49.20;;;23.20;;
3149;SDS011;32503;47.748;8.960;2023-03-04T01:13:05;53.17;;;24.40;;
3149;SDS011;32503;47.748;8.960;2023-03-04T01:15:32;53.17;;;23.57;;
3149;SDS011;32503;47.748;8.960;2023-03-04T01:17:59;43.43;;;21.87;;
3149;SDS011;32503;47.748;8.960;2023-03-04T01:20:26;47.47;;;22.17;;
3149;SDS011;32503;47.748;8.960;2023-03-04T01:22:54;47.70;;;23.47;;
3149;SDS011;32503;47.748;8.960;2023-03-04T01:25:21;44.90;;;22.80;;
3149;SDS011;32503;47.748;8.960;2023-03-04T01:27:48;43.30;;;20.50;;
3149;SDS011;32503;47.748;8.960;2023-03-04T01:30:15;47.47;;;23.10;;
3149;SDS011;32503;47.748;8.960;2023-03-04T01:32:43;47.63;;;21.57;;
3149;SDS011;32503;47.748;8.960;2023-03-04T01:35:10;47.87;;;23.53;;
3149;SDS011;32503;47.748;8.960;2023-03-04T01:37:37;47.30;;;22.17;;
3149;SDS011;32503;47.748;8.960;2023-03-04T01:40:07;51.73;;;23.53;;
3149;SDS011;32503;47.748;8.960;2023-03-04T01:42:35;48.47;;;23.83;;
3149;SDS011;32503;47.748;8.960;2023-03-04T01:45:02;46.57;;;22.07;;
3149;SDS011;32503;47.748;8.960;2023-03-04T01:47:32;53.67;;;21.40;;
3149;SDS011;32503;47.748;8.960;2023-03-04T01:50:00;45.20;;;23.00;;
3149;SDS011;32503;47.748;8.960;2023-03-04T01:52:30;57.03;;;23.90;;
3149;SDS011;32503;47.748;8.960;2023-03-04T01:54:57;49.13;;;23.50;;
3149;SDS011;32503;47.748;8.960;2023-03-04T01:57:26;50.40;;;23.67;;
3149;SDS011;32503;47.748;8.960;2023-03-04T02:02:59;49.73;;;25.30;;
3149;SDS011;32503;47.748;8.960;2023-03-04T02:05:32;47.27;;;21.37;;
3149;SDS011;32503;47.748;8.960;2023-03-04T02:08:02;46.47;;;23.80;;
3149;SDS011;32503;47.748;8.960;2023-03-04T02:10:30;39.40;;;21.87;;
3149;SDS011;32503;47.748;8.960;2023-03-04T02:12:59;44.83;;;22.70;;
3149;SDS011;32503;47.748;8.960;2023-03-04T02:15:27;49.93;;;22.33;;
3149;SDS011;32503;47.748;8.960;2023-03-04T02:17:55;40.13;;;20.63;;
3149;SDS011;32503;47.748;8.960;2023-03-04T02:20:25;43.93;;;22.97;;
3149;SDS011;32503;47.748;8.960;2023-03-04T02:23:03;38.23;;;21.57;;
3149;SDS011;32503;47.748;8.960;2023-03-04T02:25:38;46.90;;;22.20;;
3149;SDS011;32503;47.748;8.960;2023-03-04T02:28:14;44.70;;;22.07;;
3149;SDS011;32503;47.748;8.960;2023-03-04T02:30:41;50.70;;;20.90;;
3149;SDS011;32503;47.748;8.960;2023-03-04T02:33:10;42.97;;;21.90;;
3149;SDS011;32503;47.748;8.960;2023-03-04T02:35:43;45.43;;;22.63;;
3149;SDS011;32503;47.748;8.960;2023-03-04T02:38:11;45.73;;;21.60;;
3149;SDS011;32503;47.748;8.960;2023-03-04T02:40:39;40.37;;;20.80;;
3149;SDS011;32503;47.748;8.960;2023-03-04T02:43:10;40.87;;;20.80;;
3149;SDS011;32503;47.748;8.960;2023-03-04T02:45:40;46.90;;;22.43;;
3149;SDS011;32503;47.748;8.960;2023-03-04T02:48:09;43.80;;;20.43;;
3149;SDS011;32503;47.748;8.960;2023-03-04T02:50:40;35.03;;;19.20;;
3149;SDS011;32503;47.748;8.960;2023-03-04T02:53:10;43.93;;;21.07;;
3149;SDS011;32503;47.748;8.960;2023-03-04T02:55:37;46.90;;;21.70;;
3149;SDS011;32503;47.748;8.960;2023-03-04T02:58:06;39.73;;;20.30;;
3149;SDS011;32503;47.748;8.960;2023-03-04T03:00:33;47.77;;;22.30;;
3149;SDS011;32503;47.748;8.960;2023-03-04T03:03:02;43.50;;;21.57;;
3149;SDS011;32503;47.748;8.960;2023-03-04T03:05:30;38.53;;;19.13;;
3149;SDS011;32503;47.748;8.960;2023-03-04T03:07:59;37.97;;;19.00;;
3149;SDS011;32503;47.748;8.960;2023-03-04T03:10:26;48.83;;;20.77;;
3149;SDS011;32503;47.748;8.960;2023-03-04T03:12:53;43.33;;;21.77;;
3149;SDS011;32503;47.748;8.960;2023-03-04T03:15:21;49.20;;;23.17;;
3149;SDS011;32503;47.748;8.960;2023-03-04T03:17:48;40.97;;;22.10;;
3149;SDS011;32503;47.748;8.960;2023-03-04T03:20:17;49.47;;;22.00;;
3149;SDS011;32503;47.748;8.960;2023-03-04T03:22:44;44.63;;;20.53;;
3149;SDS011;32503;47.748;8.960;2023-03-04T03:25:12;37.23;;;19.73;;
3149;SDS011;32503;47.748;8.960;2023-03-04T03:27:40;39.43;;;20.67;;
3149;SDS011;32503;47.748;8.960;2023-03-04T03:30:08;39.33;;;20.40;;
3149;SDS011;32503;47.748;8.960;2023-03-04T03:32:38;42.17;;;20.30;;
3149;SDS011;32503;47.748;8.960;2023-03-04T03:35:06;47.07;;;23.60;;
3149;SDS011;32503;47.748;8.960;2023-03-04T03:37:35;40.87;;;20.33;;
3149;SDS011;32503;47.748;8.960;2023-03-04T03:40:02;43.20;;;22.10;;
3149;SDS011;32503;47.748;8.960;2023-03-04T03:42:30;45.40;;;21.77;;
3149;SDS011;32503;47.748;8.960;2023-03-04T03:44:57;45.73;;;21.70;;
3149;SDS011;32503;47.748;8.960;2023-03-04T03:47:25;47.97;;;21.70;;
3149;SDS011;32503;47.748;8.960;2023-03-04T03:49:52;39.30;;;21.10;;
3149;SDS011;32503;47.748;8.960;2023-03-04T03:52:20;40.70;;;20.87;;
3149;SDS011;32503;47.748;8.960;2023-03-04T03:54:48;40.97;;;19.27;;
3149;SDS011;32503;47.748;8.960;2023-03-04T03:57:15;51.83;;;22.50;;
3149;SDS011;32503;47.748;8.960;2023-03-04T03:59:42;42.40;;;21.67;;
3149;SDS011;32503;47.748;8.960;2023-03-04T04:02:09;41.50;;;21.70;;
3149;SDS011;32503;47.748;8.960;2023-03-04T04:04:36;47.83;;;21.17;;
3149;SDS011;32503;47.748;8.960;2023-03-04T04:07:03;43.00;;;20.90;;
3149;SDS011;32503;47.748;8.960;2023-03-04T04:09:30;44.03;;;22.03;;
3149;SDS011;32503;47.748;8.960;2023-03-04T04:11:58;47.43;;;20.60;;
3149;SDS011;32503;47.748;8.960;2023-03-04T04:14:25;48.80;;;22.20;;
3149;SDS011;32503;47.748;8.960;2023-03-04T04:16:53;43.73;;;22.73;;
3149;SDS011;32503;47.748;8.960;2023-03-04T04:19:21;38.63;;;21.73;;
3149;SDS011;32503;47.748;8.960;2023-03-04T04:21:48;45.93;;;20.67;;
3149;SDS011;32503;47.748;8.960;2023-03-04T04:24:15;58.37;;;23.70;;
3149;SDS011;32503;47.748;8.960;2023-03-04T04:26:42;45.60;;;22.07;;
3149;SDS011;32503;47.748;8.960;2023-03-04T04:29:11;46.47;;;22.00;;
3149;SDS011;32503;47.748;8.960;2023-03-04T04:31:39;48.87;;;21.20;;
3149;SDS011;32503;47.748;8.960;2023-03-04T04:34:07;43.93;;;20.47;;
3149;SDS011;32503;47.748;8.960;2023-03-04T04:36:34;36.10;;;19.50;;
3149;SDS011;32503;47.748;8.960;2023-03-04T04:39:02;39.27;;;21.37;;
3149;SDS011;32503;47.748;8.960;2023-03-04T04:41:30;38.33;;;20.20;;
3149;SDS011;32503;47.748;8.960;2023-03-04T04:44:02;43.43;;;22.60;;
3149;SDS011;32503;47.748;8.960;2023-03-04T04:46:30;40.13;;;18.50;;
3149;SDS011;32503;47.748;8.960;2023-03-04T04:48:58;42.30;;;18.53;;
3149;SDS011;32503;47.748;8.960;2023-03-04T04:51:25;43.07;;;22.53;;
3149;SDS011;32503;47.748;8.960;2023-03-04T04:53:52;41.30;;;20.67;;
3149;SDS011;32503;47.748;8.960;2023-03-04T04:56:21;45.43;;;22.20;;
3149;SDS011;32503;47.748;8.960;2023-03-04T04:58:50;37.80;;;19.80;;
3149;SDS011;32503;47.748;8.960;2023-03-04T05:01:18;42.67;;;20.17;;
3149;SDS011;32503;47.748;8.960;2023-03-04T05:03:47;41.60;;;20.23;;
3149;SDS011;32503;47.748;8.960;2023-03-04T05:06:17;41.33;;;20.33;;
3149;SDS011;32503;47.748;8.960;2023-03-04T05:08:45;39.00;;;20.40;;
3149;SDS011;32503;47.748;8.960;2023-03-04T05:11:13;42.20;;;19.17;;
3149;SDS011;32503;47.748;8.960;2023-03-04T05:13:40;38.60;;;21.03;;
3149;SDS011;32503;47.748;8.960;2023-03-04T05:16:07;38.60;;;19.33;;
3149;SDS011;32503;47.748;8.960;2023-03-04T05:18:35;40.30;;;18.50;;
3149;SDS011;32503;47.748;8.960;2023-03-04T05:21:03;34.13;;;18.57;;
3149;SDS011;32503;47.748;8.960;2023-03-04T05:23:31;44.97;;;21.03;;
3149;SDS011;32503;47.748;8.960;2023-03-04T05:26:01;32.43;;;18.70;;
3149;SDS011;32503;47.748;8.960;2023-03-04T05:28:29;36.67;;;20.40;;
3149;SDS011;32503;47.748;8.960;2023-03-04T05:30:57;43.87;;;20.77;;
3149;SDS011;32503;47.748;8.960;2023-03-04T05:33:24;40.90;;;20.60;;
3149;SDS011;32503;47.748;8.960;2023-03-04T05:35:51;45.77;;;21.27;;
3149;SDS011;32503;47.748;8.960;2023-03-04T05:38:20;50.23;;;23.87;;
3149;SDS011;32503;47.748;8.960;2023-03-04T05:40:48;47.43;;;19.40;;
3149;SDS011;32503;47.748;8.960;2023-03-04T05:43:20;41.40;;;20.20;;
3149;SDS011;32503;47.748;8.960;2023-03-04T05:45:47;42.53;;;20.50;;
3149;SDS011;32503;47.748;8.960;2023-03-04T05:48:16;48.63;;;20.70;;
3149;SDS011;32503;47.748;8.960;2023-03-04T05:50:43;44.30;;;19.60;;
3149;SDS011;32503;47.748;8.960;2023-03-04T05:53:11;39.33;;;21.97;;
3149;SDS011;32503;47.748;8.960;2023-03-04T05:55:40;41.13;;;20.77;;
3149;SDS011;32503;47.748;8.960;2023-03-04T05:58:12;49.77;;;20.70;;
3149;SDS011;32503;47.748;8.960;2023-03-04T06:00:39;41.13;;;19.13;;
3149;SDS011;32503;47.748;8.960;2023-03-04T06:03:07;38.17;;;20.77;;
3149;SDS011;32503;47.748;8.960;2023-03-04T06:05:40;43.07;;;20.60;;
3149;SDS011;32503;47.748;8.960;2023-03-04T06:08:07;41.97;;;19.97;;
3149;SDS011;32503;47.748;8.960;2023-03-04T06:10:35;40.73;;;19.77;;
3149;SDS011;32503;47.748;8.960;2023-03-04T06:13:03;41.27;;;19.80;;
3149;SDS011;32503;47.748;8.960;2023-03-04T06:15:30;38.10;;;20.10;;
3149;SDS011;32503;47.748;8.960;2023-03-04T06:17:58;39.90;;;19.60;;
3149;SDS011;32503;47.748;8.960;2023-03-04T06:20:25;46.33;;;23.13;;
3149;SDS011;32503;47.748;8.960;2023-03-04T06:22:52;52.23;;;25.07;;
3149;SDS011;32503;47.748;8.960;2023-03-04T06:25:19;39.30;;;20.90;;
3149;SDS011;32503;47.748;8.960;2023-03-04T06:27:47;45.93;;;21.77;;
3149;SDS011;32503;47.748;8.960;2023-03-04T06:30:15;46.13;;;20.70;;
3149;SDS011;32503;47.748;8.960;2023-03-04T06:32:43;49.97;;;21.83;;
3149;SDS011;32503;47.748;8.960;2023-03-04T06:35:11;42.70;;;20.23;;
3149;SDS011;32503;47.748;8.960;2023-03-04T06:37:40;21.20;;;12.03;;
3149;SDS011;32503;47.748;8.960;2023-03-04T06:40:09;39.97;;;20.37;;
3149;SDS011;32503;47.748;8.960;2023-03-04T06:42:37;50.13;;;22.67;;
3149;SDS011;32503;47.748;8.960;2023-03-04T06:45:05;42.57;;;21.37;;
3149;SDS011;32503;47.748;8.960;2023-03-04T06:47:35;55.33;;;23.80;;
3149;SDS011;32503;47.748;8.960;2023-03-04T06:50:03;42.73;;;22.20;;
3149;SDS011;32503;47.748;8.960;2023-03-04T06:52:31;38.23;;;19.43;;
3149;SDS011;32503;47.748;8.960;2023-03-04T06:54:59;51.33;;;23.03;;
3149;SDS011;32503;47.748;8.960;2023-03-04T06:57:26;49.67;;;22.40;;
3149;SDS011;32503;47.748;8.960;2023-03-04T06:59:54;54.20;;;23.30;;
3149;SDS011;32503;47.748;8.960;2023-03-04T07:02:21;46.90;;;22.63;;
3149;SDS011;32503;47.748;8.960;2023-03-04T07:04:49;50.70;;;23.70;;
3149;SDS011;32503;47.748;8.960;2023-03-04T07:07:17;58.00;;;28.70;;
3149;SDS011;32503;47.748;8.960;2023-03-04T07:09:44;54.63;;;27.93;;
3149;SDS011;32503;47.748;8.960;2023-03-04T07:12:11;56.40;;;28.47;;
3149;SDS011;32503;47.748;8.960;2023-03-04T07:14:38;85.17;;;38.43;;
3149;SDS011;32503;47.748;8.960;2023-03-04T07:17:05;64.90;;;32.27;;
3149;SDS011;32503;47.748;8.960;2023-03-04T07:19:32;62.87;;;31.90;;
3149;SDS011;32503;47.748;8.960;2023-03-04T07:22:01;53.80;;;30.00;;
3149;SDS011;32503;47.748;8.960;2023-03-04T07:24:28;63.40;;;30.03;;
3149;SDS011;32503;47.748;8.960;2023-03-04T07:26:55;50.43;;;26.10;;
3149;SDS011;32503;47.748;8.960;2023-03-04T07:29:22;49.70;;;26.40;;
3149;SDS011;32503;47.748;8.960;2023-03-04T07:31:51;52.57;;;28.50;;
3149;SDS011;32503;47.748;8.960;2023-03-04T07:34:19;40.10;;;24.33;;
3149;SDS011;32503;47.748;8.960;2023-03-04T07:36:46;54.20;;;25.50;;
3149;SDS011;32503;47.748;8.960;2023-03-04T07:39:15;49.33;;;26.37;;
3149;SDS011;32503;47.748;8.960;2023-03-04T07:41:42;54.70;;;27.10;;
3149;SDS011;32503;47.748;8.960;2023-03-04T07:44:10;44.77;;;25.10;;
3149;SDS011;32503;47.748;8.960;2023-03-04T07:46:38;45.97;;;23.03;;
3149;SDS011;32503;47.748;8.960;2023-03-04T07:49:16;51.53;;;24.80;;
3149;SDS011;32503;47.748;8.960;2023-03-04T07:51:53;45.60;;;23.40;;
3149;SDS011;32503;47.748;8.960;2023-03-04T07:54:31;48.20;;;25.87;;
3149;SDS011;32503;47.748;8.960;2023-03-04T07:57:03;49.07;;;25.17;;
3149;SDS011;32503;47.748;8.960;2023-03-04T07:59:30;46.93;;;24.50;;
3149;SDS011;32503;47.748;8.960;2023-03-04T08:01:57;48.27;;;24.80;;
3149;SDS011;32503;47.748;8.960;2023-03-04T08:04:25;50.87;;;24.60;;
3149;SDS011;32503;47.748;8.960;2023-03-04T08:06:52;43.63;;;22.90;;
3149;SDS011;32503;47.748;8.960;2023-03-04T08:09:19;44.27;;;24.77;;
3149;SDS011;32503;47.748;8.960;2023-03-04T08:11:47;43.53;;;24.00;;
3149;SDS011;32503;47.748;8.960;2023-03-04T08:14:14;48.90;;;26.23;;
3149;SDS011;32503;47.748;8.960;2023-03-04T08:16:42;43.63;;;25.00;;
3149;SDS011;32503;47.748;8.960;2023-03-04T08:19:09;42.43;;;26.43;;
3149;SDS011;32503;47.748;8.960;2023-03-04T08:21:37;50.30;;;26.50;;
3149;SDS011;32503;47.748;8.960;2023-03-04T08:24:04;38.73;;;23.30;;
3149;SDS011;32503;47.748;8.960;2023-03-04T08:26:33;49.83;;;26.97;;
3149;SDS011;32503;47.748;8.960;2023-03-04T08:29:07;49.70;;;24.97;;
3149;SDS011;32503;47.748;8.960;2023-03-04T08:31:36;47.23;;;25.87;;
3149;SDS011;32503;47.748;8.960;2023-03-04T08:34:03;48.30;;;26.00;;
3149;SDS011;32503;47.748;8.960;2023-03-04T08:36:31;55.60;;;28.80;;
3149;SDS011;32503;47.748;8.960;2023-03-04T08:38:58;48.23;;;26.93;;
3149;SDS011;32503;47.748;8.960;2023-03-04T08:41:26;51.67;;;28.00;;
3149;SDS011;32503;47.748;8.960;2023-03-04T08:43:53;50.43;;;27.63;;
3149;SDS011;32503;47.748;8.960;2023-03-04T08:46:21;53.20;;;27.10;;
3149;SDS011;32503;47.748;8.960;2023-03-04T08:48:48;52.47;;;27.07;;
3149;SDS011;32503;47.748;8.960;2023-03-04T08:51:15;49.73;;;27.30;;
3149;SDS011;32503;47.748;8.960;2023-03-04T08:53:43;53.10;;;26.70;;
3149;SDS011;32503;47.748;8.960;2023-03-04T08:56:11;53.67;;;29.00;;
3149;SDS011;32503;47.748;8.960;2023-03-04T08:58:39;47.60;;;25.47;;
3149;SDS011;32503;47.748;8.960;2023-03-04T09:01:07;52.20;;;27.17;;
3149;SDS011;32503;47.748;8.960;2023-03-04T09:03:37;51.97;;;28.80;;
3149;SDS011;32503;47.748;8.960;2023-03-04T09:06:05;50.40;;;27.77;;
3149;SDS011;32503;47.748;8.960;2023-03-04T09:08:34;49.83;;;26.33;;
3149;SDS011;32503;47.748;8.960;2023-03-04T09:11:01;62.40;;;29.63;;
3149;SDS011;32503;47.748;8.960;2023-03-04T09:13:29;68.07;;;43.63;;
3149;SDS011;32503;47.748;8.960;2023-03-04T09:15:57;49.37;;;26.50;;
3149;SDS011;32503;47.748;8.960;2023-03-04T09:18:26;50.00;;;26.60;;
3149;SDS011;32503;47.748;8.960;2023-03-04T09:20:55;54.20;;;30.37;;
3149;SDS011;32503;47.748;8.960;2023-03-04T09:23:22;55.10;;;28.77;;
3149;SDS011;32503;47.748;8.960;2023-03-04T09:25:49;67.80;;;27.50;;
3149;SDS011;32503;47.748;8.960;2023-03-04T09:28:16;51.93;;;28.67;;
3149;SDS011;32503;47.748;8.960;2023-03-04T09:30:44;57.33;;;28.37;;
3149;SDS011;32503;47.748;8.960;2023-03-04T09:33:19;49.50;;;26.90;;
3149;SDS011;32503;47.748;8.960;2023-03-04T09:36:04;51.03;;;28.80;;
3149;SDS011;32503;47.748;8.960;2023-03-04T09:38:32;57.00;;;28.37;;
3149;SDS011;32503;47.748;8.960;2023-03-04T09:40:59;53.17;;;28.10;;
3149;SDS011;32503;47.748;8.960;2023-03-04T09:43:32;59.10;;;29.37;;
3149;SDS011;32503;47.748;8.960;2023-03-04T09:46:00;48.23;;;26.87;;
3149;SDS011;32503;47.748;8.960;2023-03-04T09:48:34;56.37;;;30.30;;
3149;SDS011;32503;47.748;8.960;2023-03-04T09:51:13;53.63;;;28.27;;
3149;SDS011;32503;47.748;8.960;2023-03-04T09:53:48;58.00;;;29.10;;
3149;SDS011;32503;47.748;8.960;2023-03-04T09:56:29;50.70;;;29.60;;
3149;SDS011;32503;47.748;8.960;2023-03-04T09:59:00;51.80;;;29.90;;
3149;SDS011;32503;47.748;8.960;2023-03-04T10:01:38;58.47;;;29.90;;
3149;SDS011;32503;47.748;8.960;2023-03-04T10:04:13;63.43;;;30.90;;
3149;SDS011;32503;47.748;8.960;2023-03-04T10:06:50;54.63;;;28.87;;
3149;SDS011;32503;47.748;8.960;2023-03-04T10:09:18;57.17;;;30.60;;
3149;SDS011;32503;47.748;8.960;2023-03-04T10:11:53;56.47;;;29.27;;
3149;SDS011;32503;47.748;8.960;2023-03-04T10:14:32;65.23;;;31.60;;
3149;SDS011;32503;47.748;8.960;2023-03-04T10:17:05;51.90;;;28.37;;
3149;SDS011;32503;47.748;8.960;2023-03-04T10:19:48;51.23;;;28.10;;
3149;SDS011;32503;47.748;8.960;2023-03-04T10:22:25;60.83;;;30.27;;
3149;SDS011;32503;47.748;8.960;2023-03-04T10:24:59;62.23;;;31.60;;
3149;SDS011;32503;47.748;8.960;2023-03-04T10:27:40;54.13;;;30.10;;
3149;SDS011;32503;47.748;8.960;2023-03-04T10:30:10;54.80;;;28.40;;
3149;SDS011;32503;47.748;8.960;2023-03-04T10:32:55;49.80;;;28.20;;
3149;SDS011;32503;47.748;8.960;2023-03-04T10:35:25;55.07;;;29.40;;
3149;SDS011;32503;47.748;8.960;2023-03-04T10:38:02;58.93;;;30.03;;
3149;SDS011;32503;47.748;8.960;2023-03-04T10:40:30;65.13;;;30.33;;
3149;SDS011;32503;47.748;8.960;2023-03-04T10:43:08;60.43;;;30.43;;
3149;SDS011;32503;47.748;8.960;2023-03-04T10:45:42;63.93;;;29.20;;
3149;SDS011;32503;47.748;8.960;2023-03-04T10:48:17;54.00;;;31.33;;
3149;SDS011;32503;47.748;8.960;2023-03-04T10:50:48;55.93;;;30.33;;
3149;SDS011;32503;47.748;8.960;2023-03-04T10:53:23;63.37;;;31.10;;
3149;SDS011;32503;47.748;8.960;2023-03-04T10:55:57;70.57;;;33.23;;
3149;SDS011;32503;47.748;8.960;2023-03-04T10:58:24;56.63;;;30.97;;
3149;SDS011;32503;47.748;8.960;2023-03-04T11:01:00;69.80;;;33.97;;
3149;SDS011;32503;47.748;8.960;2023-03-04T11:03:30;64.40;;;31.77;;
3149;SDS011;32503;47.748;8.960;2023-03-04T11:06:04;62.93;;;32.37;;
3149;SDS011;32503;47.748;8.960;2023-03-04T11:08:39;60.33;;;31.57;;
3149;SDS011;32503;47.748;8.960;2023-03-04T11:11:20;67.03;;;33.17;;
3149;SDS011;32503;47.748;8.960;2023-03-04T11:13:59;64.17;;;33.17;;
3149;SDS011;32503;47.748;8.960;2023-03-04T11:16:33;62.43;;;31.23;;
3149;SDS011;32503;47.748;8.960;2023-03-04T11:19:02;57.60;;;31.67;;
3149;SDS011;32503;47.748;8.960;2023-03-04T11:21:36;57.60;;;30.43;;
3149;SDS011;32503;47.748;8.960;2023-03-04T11:24:08;60.87;;;33.50;;
3149;SDS011;32503;47.748;8.960;2023-03-04T11:26:39;60.23;;;33.13;;
3149;SDS011;32503;47.748;8.960;2023-03-04T11:29:13;58.17;;;30.80;;
3149;SDS011;32503;47.748;8.960;2023-03-04T11:31:45;66.00;;;32.60;;
3149;SDS011;32503;47.748;8.960;2023-03-04T11:34:19;57.67;;;32.23;;
3149;SDS011;32503;47.748;8.960;2023-03-04T11:36:58;63.83;;;32.23;;
3149;SDS011;32503;47.748;8.960;2023-03-04T11:39:33;56.30;;;31.10;;
3149;SDS011;32503;47.748;8.960;2023-03-04T11:42:04;67.07;;;36.00;;
3149;SDS011;32503;47.748;8.960;2023-03-04T11:44:42;58.80;;;32.70;;
3149;SDS011;32503;47.748;8.960;2023-03-04T11:50:14;60.90;;;31.90;;
3149;SDS011;32503;47.748;8.960;2023-03-04T11:53:09;57.40;;;32.17;;
3149;SDS011;32503;47.748;8.960;2023-03-04T11:55:59;64.43;;;32.73;;
3149;SDS011;32503;47.748;8.960;2023-03-04T11:58:52;63.47;;;31.50;;
3149;SDS011;32503;47.748;8.960;2023-03-04T12:01:47;58.33;;;30.97;;
3149;SDS011;32503;47.748;8.960;2023-03-04T12:04:27;60.57;;;31.30;;
3149;SDS011;32503;47.748;8.960;2023-03-04T12:07:29;64.23;;;33.50;;
3149;SDS011;32503;47.748;8.960;2023-03-04T12:10:29;66.10;;;31.80;;
3149;SDS011;32503;47.748;8.960;2023-03-04T12:13:11;60.77;;;32.37;;
3149;SDS011;32503;47.748;8.960;2023-03-04T12:16:04;59.73;;;34.10;;
3149;SDS011;32503;47.748;8.960;2023-03-04T12:18:49;56.60;;;32.40;;
3149;SDS011;32503;47.748;8.960;2023-03-04T12:21:36;65.07;;;31.77;;
3149;SDS011;32503;47.748;8.960;2023-03-04T12:24:46;61.17;;;31.37;;
3149;SDS011;32503;47.748;8.960;2023-03-04T12:27:34;64.07;;;32.40;;
3149;SDS011;32503;47.748;8.960;2023-03-04T12:30:15;62.73;;;32.17;;
3149;SDS011;32503;47.748;8.960;2023-03-04T12:33:02;58.63;;;32.90;;
3149;SDS011;32503;47.748;8.960;2023-03-04T12:35:46;65.13;;;31.47;;
3149;SDS011;32503;47.748;8.960;2023-03-04T12:38:33;57.33;;;28.47;;
3149;SDS011;32503;47.748;8.960;2023-03-04T12:41:26;52.90;;;27.07;;
3149;SDS011;32503;47.748;8.960;2023-03-04T12:44:12;56.37;;;30.20;;
3149;SDS011;32503;47.748;8.960;2023-03-04T12:46:56;62.13;;;30.17;;
3149;SDS011;32503;47.748;8.960;2023-03-04T12:49:54;61.70;;;29.60;;
3149;SDS011;32503;47.748;8.960;2023-03-04T12:52:46;57.50;;;29.90;;
3149;SDS011;32503;47.748;8.960;2023-03-04T12:55:29;56.70;;;30.87;;
3149;SDS011;32503;47.748;8.960;2023-03-04T12:58:03;54.30;;;28.40;;
3149;SDS011;32503;47.748;8.960;2023-03-04T13:00:34;54.80;;;28.90;;
3149;SDS011;32503;47.748;8.960;2023-03-04T13:03:16;57.07;;;29.83;;
3149;SDS011;32503;47.748;8.960;2023-03-04T13:06:01;62.30;;;30.80;;
3149;SDS011;32503;47.748;8.960;2023-03-04T13:08:51;52.47;;;28.33;;
3149;SDS011;32503;47.748;8.960;2023-03-04T13:11:41;55.27;;;28.03;;
3149;SDS011;32503;47.748;8.960;2023-03-04T13:14:28;54.13;;;28.77;;
3149;SDS011;32503;47.748;8.960;2023-03-04T13:17:00;54.03;;;31.77;;
3149;SDS011;32503;47.748;8.960;2023-03-04T13:19:49;55.80;;;29.77;;
3149;SDS011;32503;47.748;8.960;2023-03-04T13:22:27;55.30;;;29.70;;
3149;SDS011;32503;47.748;8.960;2023-03-04T13:33:50;56.20;;;30.33;;
3149;SDS011;32503;47.748;8.960;2023-03-04T13:39:32;56.07;;;31.60;;
3149;SDS011;32503;47.748;8.960;2023-03-04T13:42:02;59.83;;;31.67;;
3149;SDS011;32503;47.748;8.960;2023-03-04T13:47:31;55.47;;;29.67;;
3149;SDS011;32503;47.748;8.960;2023-03-04T13:53:19;52.47;;;28.80;;
3149;SDS011;32503;47.748;8.960;2023-03-04T13:56:18;53.47;;;27.50;;
3149;SDS011;32503;47.748;8.960;2023-03-04T14:01:56;52.80;;;27.53;;
3149;SDS011;32503;47.748;8.960;2023-03-04T14:04:27;55.53;;;29.80;;
3149;SDS011;32503;47.748;8.960;2023-03-04T14:06:58;52.87;;;28.60;;
3149;SDS011;32503;47.748;8.960;2023-03-04T14:09:29;55.60;;;29.40;;
3149;SDS011;32503;47.748;8.960;2023-03-04T14:11:58;59.00;;;29.07;;
3149;SDS011;32503;47.748;8.960;2023-03-04T14:14:28;50.80;;;28.17;;
3149;SDS011;32503;47.748;8.960;2023-03-04T14:17:01;50.27;;;28.20;;
3149;SDS011;32503;47.748;8.960;2023-03-04T14:19:32;57.50;;;28.37;;
3149;SDS011;32503;47.748;8.960;2023-03-04T14:22:17;55.10;;;28.83;;
3149;SDS011;32503;47.748;8.960;2023-03-04T14:24:57;55.43;;;28.63;;
3149;SDS011;32503;47.748;8.960;2023-03-04T14:27:26;49.30;;;29.50;;
3149;SDS011;32503;47.748;8.960;2023-03-04T14:29:57;45.67;;;29.70;;
3149;SDS011;32503;47.748;8.960;2023-03-04T14:32:26;56.03;;;30.33;;
3149;SDS011;32503;47.748;8.960;2023-03-04T14:34:55;53.37;;;28.50;;
3149;SDS011;32503;47.748;8.960;2023-03-04T14:37:29;49.00;;;27.50;;
3149;SDS011;32503;47.748;8.960;2023-03-04T14:40:06;48.50;;;27.07;;
3149;SDS011;32503;47.748;8.960;2023-03-04T14:42:40;62.13;;;28.77;;
3149;SDS011;32503;47.748;8.960;2023-03-04T14:45:11;49.23;;;28.70;;
3149;SDS011;32503;47.748;8.960;2023-03-04T14:47:41;48.37;;;29.03;;
3149;SDS011;32503;47.748;8.960;2023-03-04T14:50:12;57.17;;;27.17;;
3149;SDS011;32503;47.748;8.960;2023-03-04T14:52:42;47.70;;;26.43;;
3149;SDS011;32503;47.748;8.960;2023-03-04T14:55:22;55.87;;;29.30;;
3149;SDS011;32503;47.748;8.960;2023-03-04T14:57:51;44.83;;;24.67;;
3149;SDS011;32503;47.748;8.960;2023-03-04T15:00:24;50.57;;;27.50;;
3149;SDS011;32503;47.748;8.960;2023-03-04T15:02:56;51.63;;;25.63;;
3149;SDS011;32503;47.748;8.960;2023-03-04T15:05:26;50.53;;;26.90;;
3149;SDS011;32503;47.748;8.960;2023-03-04T15:07:57;54.00;;;28.37;;
3149;SDS011;32503;47.748;8.960;2023-03-04T15:10:29;47.47;;;26.27;;
3149;SDS011;32503;47.748;8.960;2023-03-04T15:12:59;48.57;;;26.30;;
3149;SDS011;32503;47.748;8.960;2023-03-04T15:15:32;51.17;;;26.57;;
3149;SDS011;32503;47.748;8.960;2023-03-04T15:20:58;46.37;;;25.77;;
3149;SDS011;32503;47.748;8.960;2023-03-04T15:23:28;52.13;;;27.97;;
3149;SDS011;32503;47.748;8.960;2023-03-04T15:25:59;49.23;;;25.67;;
3149;SDS011;32503;47.748;8.960;2023-03-04T15:28:30;49.57;;;27.37;;